sensor_id;sensor_type;location;lat;lon;timestamp;P1;durP1;ratioP1;P2;durP2;ratioP2
5175;SDS011;2607;50.934;6.934;2023-03-01T00:01:07;5.57;;;5.03;;
5175;SDS011;2607;50.934;6.934;2023-03-01T00:03:38;8.47;;;6.50;;
5175;SDS011;2607;50.934;6.934;2023-03-01T00:06:04;5.33;;;4.90;;
5175;SDS011;2607;50.934;6.934;2023-03-01T00:08:30;5.57;;;5.17;;
5175;SDS011;2607;50.934;6.934;2023-03-01T00:13:31;6.83;;;5.50;;
5175;SDS011;2607;50.934;6.934;2023-03-01T00:15:57;10.50;;;6.27;;
5175;SDS011;2607;50.934;6.934;2023-03-01T00:18:22;6.10;;;5.50;;
5175;SDS011;2607;50.934;6.934;2023-03-01T00:20:49;5.67;;;5.10;;
5175;SDS011;2607;50.934;6.934;2023-03-01T00:23:19;8.80;;;5.17;;
5175;SDS011;2607;50.934;6.934;2023-03-01T00:25:45;5.50;;;5.00;;
5175;SDS011;2607;50.934;6.934;2023-03-01T00:28:10;6.07;;;5.17;;
5175;SDS011;2607;50.934;6.934;2023-03-01T00:30:36;9.50;;;5.07;;
5175;SDS011;2607;50.934;6.934;2023-03-01T00:33:02;5.97;;;5.43;;
5175;SDS011;2607;50.934;6.934;2023-03-01T00:35:27;6.80;;;5.40;;
5175;SDS011;2607;50.934;6.934;2023-03-01T00:37:53;5.70;;;5.20;;
5175;SDS011;2607;50.934;6.934;2023-03-01T00:40:32;5.40;;;5.00;;
5175;SDS011;2607;50.934;6.934;2023-03-01T00:42:59;6.87;;;4.67;;
5175;SDS011;2607;50.934;6.934;2023-03-01T00:45:25;7.27;;;4.90;;
5175;SDS011;2607;50.934;6.934;2023-03-01T00:47:51;6.00;;;5.40;;
5175;SDS011;2607;50.934;6.934;2023-03-01T00:50:17;5.30;;;4.80;;
5175;SDS011;2607;50.934;6.934;2023-03-01T00:52:43;4.57;;;4.33;;
5175;SDS011;2607;50.934;6.934;2023-03-01T00:55:09;5.53;;;5.03;;
5175;SDS011;2607;50.934;6.934;2023-03-01T00:57:35;5.00;;;4.60;;
5175;SDS011;2607;50.934;6.934;2023-03-01T01:00:01;4.60;;;4.30;;
5175;SDS011;2607;50.934;6.934;2023-03-01T01:02:28;5.10;;;4.70;;
5175;SDS011;2607;50.934;6.934;2023-03-01T01:04:53;5.10;;;4.70;;
5175;SDS011;2607;50.934;6.934;2023-03-01T01:07:19;4.67;;;4.27;;
5175;SDS011;2607;50.934;6.934;2023-03-01T01:09:47;5.83;;;5.20;;
5175;SDS011;2607;50.934;6.934;2023-03-01T01:12:13;5.60;;;5.10;;
5175;SDS011;2607;50.934;6.934;2023-03-01T01:14:38;5.40;;;4.90;;
5175;SDS011;2607;50.934;6.934;2023-03-01T01:17:04;7.27;;;4.87;;
5175;SDS011;2607;50.934;6.934;2023-03-01T01:19:29;5.80;;;5.27;;
5175;SDS011;2607;50.934;6.934;2023-03-01T01:21:55;7.50;;;5.40;;
5175;SDS011;2607;50.934;6.934;2023-03-01T01:24:21;6.07;;;4.77;;
5175;SDS011;2607;50.934;6.934;2023-03-01T01:26:47;5.73;;;5.17;;
5175;SDS011;2607;50.934;6.934;2023-03-01T01:29:12;5.53;;;5.03;;
5175;SDS011;2607;50.934;6.934;2023-03-01T01:31:39;5.90;;;5.27;;
5175;SDS011;2607;50.934;6.934;2023-03-01T01:34:06;8.83;;;4.90;;
5175;SDS011;2607;50.934;6.934;2023-03-01T01:36:33;5.60;;;5.10;;
5175;SDS011;2607;50.934;6.934;2023-03-01T01:38:59;5.23;;;4.80;;
5175;SDS011;2607;50.934;6.934;2023-03-01T01:41:26;11.03;;;5.43;;
5175;SDS011;2607;50.934;6.934;2023-03-01T01:46:55;6.70;;;5.40;;
5175;SDS011;2607;50.934;6.934;2023-03-01T01:49:38;5.30;;;4.80;;
5175;SDS011;2607;50.934;6.934;2023-03-01T01:52:25;5.27;;;4.87;;
5175;SDS011;2607;50.934;6.934;2023-03-01T01:55:05;5.50;;;4.87;;
5175;SDS011;2607;50.934;6.934;2023-03-01T01:57:39;5.63;;;5.03;;
5175;SDS011;2607;50.934;6.934;2023-03-01T02:00:10;6.03;;;5.40;;
5175;SDS011;2607;50.934;6.934;2023-03-01T02:02:41;7.53;;;5.90;;
5175;SDS011;2607;50.934;6.934;2023-03-01T02:05:12;5.83;;;5.33;;
5175;SDS011;2607;50.934;6.934;2023-03-01T02:07:44;5.97;;;5.40;;
5175;SDS011;2607;50.934;6.934;2023-03-01T02:10:10;5.30;;;4.90;;
5175;SDS011;2607;50.934;6.934;2023-03-01T02:12:36;10.10;;;5.70;;
5175;SDS011;2607;50.934;6.934;2023-03-01T02:15:03;5.67;;;5.00;;
5175;SDS011;2607;50.934;6.934;2023-03-01T02:17:29;5.30;;;5.00;;
5175;SDS011;2607;50.934;6.934;2023-03-01T02:22:36;5.50;;;4.40;;
5175;SDS011;2607;50.934;6.934;2023-03-01T02:25:06;5.20;;;4.80;;
5175;SDS011;2607;50.934;6.934;2023-03-01T02:30:20;6.27;;;5.67;;
5175;SDS011;2607;50.934;6.934;2023-03-01T02:32:47;5.07;;;4.70;;
5175;SDS011;2607;50.934;6.934;2023-03-01T02:35:14;6.03;;;5.50;;
5175;SDS011;2607;50.934;6.934;2023-03-01T02:37:42;5.90;;;5.30;;
5175;SDS011;2607;50.934;6.934;2023-03-01T02:40:13;5.57;;;5.17;;
5175;SDS011;2607;50.934;6.934;2023-03-01T02:42:49;5.07;;;4.73;;
5175;SDS011;2607;50.934;6.934;2023-03-01T02:45:18;6.80;;;5.70;;
5175;SDS011;2607;50.934;6.934;2023-03-01T02:47:44;6.27;;;5.77;;
5175;SDS011;2607;50.934;6.934;2023-03-01T02:50:22;6.30;;;5.70;;
5175;SDS011;2607;50.934;6.934;2023-03-01T02:55:29;5.97;;;5.40;;
5175;SDS011;2607;50.934;6.934;2023-03-01T02:57:55;7.00;;;5.67;;
5175;SDS011;2607;50.934;6.934;2023-03-01T03:00:26;6.10;;;5.47;;
5175;SDS011;2607;50.934;6.934;2023-03-01T03:02:58;5.97;;;5.47;;
5175;SDS011;2607;50.934;6.934;2023-03-01T03:05:25;5.50;;;5.10;;
5175;SDS011;2607;50.934;6.934;2023-03-01T03:07:52;6.97;;;5.57;;
5175;SDS011;2607;50.934;6.934;2023-03-01T03:10:25;6.00;;;5.40;;
5175;SDS011;2607;50.934;6.934;2023-03-01T03:12:57;5.10;;;4.80;;
5175;SDS011;2607;50.934;6.934;2023-03-01T03:15:25;6.67;;;5.70;;
5175;SDS011;2607;50.934;6.934;2023-03-01T03:17:52;5.63;;;5.20;;
5175;SDS011;2607;50.934;6.934;2023-03-01T03:20:19;6.67;;;5.90;;
5175;SDS011;2607;50.934;6.934;2023-03-01T03:22:47;5.50;;;5.10;;
5175;SDS011;2607;50.934;6.934;2023-03-01T03:25:14;10.33;;;5.60;;
5175;SDS011;2607;50.934;6.934;2023-03-01T03:27:40;6.77;;;5.43;;
5175;SDS011;2607;50.934;6.934;2023-03-01T03:30:08;5.67;;;5.17;;
5175;SDS011;2607;50.934;6.934;2023-03-01T03:32:36;5.60;;;5.17;;
5175;SDS011;2607;50.934;6.934;2023-03-01T03:35:06;6.77;;;6.23;;
5175;SDS011;2607;50.934;6.934;2023-03-01T03:37:37;6.63;;;5.87;;
5175;SDS011;2607;50.934;6.934;2023-03-01T03:40:22;6.70;;;5.50;;
5175;SDS011;2607;50.934;6.934;2023-03-01T03:42:48;6.37;;;5.77;;
5175;SDS011;2607;50.934;6.934;2023-03-01T03:45:14;6.03;;;5.43;;
5175;SDS011;2607;50.934;6.934;2023-03-01T03:47:40;6.90;;;5.80;;
5175;SDS011;2607;50.934;6.934;2023-03-01T03:50:06;6.40;;;5.80;;
5175;SDS011;2607;50.934;6.934;2023-03-01T03:52:32;6.57;;;5.90;;
5175;SDS011;2607;50.934;6.934;2023-03-01T03:54:58;10.07;;;6.90;;
5175;SDS011;2607;50.934;6.934;2023-03-01T03:57:23;6.47;;;5.87;;
5175;SDS011;2607;50.934;6.934;2023-03-01T03:59:49;7.13;;;5.93;;
5175;SDS011;2607;50.934;6.934;2023-03-01T04:02:14;6.30;;;5.80;;
5175;SDS011;2607;50.934;6.934;2023-03-01T04:04:46;6.27;;;5.77;;
5175;SDS011;2607;50.934;6.934;2023-03-01T04:07:16;7.50;;;5.47;;
5175;SDS011;2607;50.934;6.934;2023-03-01T04:09:42;6.93;;;5.97;;
5175;SDS011;2607;50.934;6.934;2023-03-01T04:12:08;6.20;;;5.60;;
5175;SDS011;2607;50.934;6.934;2023-03-01T04:14:34;6.53;;;5.93;;
5175;SDS011;2607;50.934;6.934;2023-03-01T04:17:00;7.83;;;6.50;;
5175;SDS011;2607;50.934;6.934;2023-03-01T04:19:26;6.47;;;5.87;;
5175;SDS011;2607;50.934;6.934;2023-03-01T04:21:52;8.00;;;6.30;;
5175;SDS011;2607;50.934;6.934;2023-03-01T04:24:18;6.23;;;5.50;;
5175;SDS011;2607;50.934;6.934;2023-03-01T04:26:43;6.63;;;5.70;;
5175;SDS011;2607;50.934;6.934;2023-03-01T04:29:09;7.17;;;6.27;;
5175;SDS011;2607;50.934;6.934;2023-03-01T04:31:34;7.20;;;6.20;;
5175;SDS011;2607;50.934;6.934;2023-03-01T04:34:00;7.60;;;6.80;;
5175;SDS011;2607;50.934;6.934;2023-03-01T04:36:28;8.13;;;7.10;;
5175;SDS011;2607;50.934;6.934;2023-03-01T04:38:54;7.13;;;6.43;;
5175;SDS011;2607;50.934;6.934;2023-03-01T04:41:21;6.10;;;5.60;;
5175;SDS011;2607;50.934;6.934;2023-03-01T04:43:48;7.03;;;6.40;;
5175;SDS011;2607;50.934;6.934;2023-03-01T04:46:15;7.27;;;6.53;;
5175;SDS011;2607;50.934;6.934;2023-03-01T04:48:44;7.17;;;6.47;;
5175;SDS011;2607;50.934;6.934;2023-03-01T04:51:10;8.20;;;6.83;;
5175;SDS011;2607;50.934;6.934;2023-03-01T04:53:38;7.60;;;6.87;;
5175;SDS011;2607;50.934;6.934;2023-03-01T04:56:04;8.60;;;6.80;;
5175;SDS011;2607;50.934;6.934;2023-03-01T04:58:30;7.63;;;6.80;;
5175;SDS011;2607;50.934;6.934;2023-03-01T05:00:56;7.07;;;5.80;;
5175;SDS011;2607;50.934;6.934;2023-03-01T05:03:21;7.10;;;6.37;;
5175;SDS011;2607;50.934;6.934;2023-03-01T05:05:49;7.80;;;7.10;;
5175;SDS011;2607;50.934;6.934;2023-03-01T05:08:16;7.07;;;6.40;;
5175;SDS011;2607;50.934;6.934;2023-03-01T05:10:46;13.67;;;7.60;;
5175;SDS011;2607;50.934;6.934;2023-03-01T05:13:14;7.77;;;7.07;;
5175;SDS011;2607;50.934;6.934;2023-03-01T05:15:46;7.87;;;6.93;;
5175;SDS011;2607;50.934;6.934;2023-03-01T05:18:13;9.07;;;7.63;;
5175;SDS011;2607;50.934;6.934;2023-03-01T05:20:39;9.47;;;7.10;;
5175;SDS011;2607;50.934;6.934;2023-03-01T05:23:05;8.20;;;6.73;;
5175;SDS011;2607;50.934;6.934;2023-03-01T05:25:31;8.63;;;6.97;;
5175;SDS011;2607;50.934;6.934;2023-03-01T05:27:59;10.13;;;7.23;;
5175;SDS011;2607;50.934;6.934;2023-03-01T05:30:29;8.20;;;7.40;;
5175;SDS011;2607;50.934;6.934;2023-03-01T05:32:58;7.93;;;6.60;;
5175;SDS011;2607;50.934;6.934;2023-03-01T05:35:23;15.73;;;7.17;;
5175;SDS011;2607;50.934;6.934;2023-03-01T05:37:49;9.60;;;7.00;;
5175;SDS011;2607;50.934;6.934;2023-03-01T05:40:17;9.13;;;7.10;;
5175;SDS011;2607;50.934;6.934;2023-03-01T05:42:44;8.63;;;7.60;;
5175;SDS011;2607;50.934;6.934;2023-03-01T05:45:11;8.03;;;7.23;;
5175;SDS011;2607;50.934;6.934;2023-03-01T05:47:41;10.60;;;6.93;;
5175;SDS011;2607;50.934;6.934;2023-03-01T05:50:10;7.27;;;6.50;;
5175;SDS011;2607;50.934;6.934;2023-03-01T05:52:36;8.20;;;7.20;;
5175;SDS011;2607;50.934;6.934;2023-03-01T05:55:02;7.30;;;6.60;;
5175;SDS011;2607;50.934;6.934;2023-03-01T05:57:28;8.70;;;6.87;;
5175;SDS011;2607;50.934;6.934;2023-03-01T05:59:54;11.20;;;7.10;;
5175;SDS011;2607;50.934;6.934;2023-03-01T06:02:19;8.83;;;7.40;;
5175;SDS011;2607;50.934;6.934;2023-03-01T06:04:45;10.67;;;7.83;;
5175;SDS011;2607;50.934;6.934;2023-03-01T06:07:10;8.03;;;7.20;;
5175;SDS011;2607;50.934;6.934;2023-03-01T06:09:36;10.07;;;7.23;;
5175;SDS011;2607;50.934;6.934;2023-03-01T06:12:01;8.80;;;7.43;;
5175;SDS011;2607;50.934;6.934;2023-03-01T06:14:27;7.17;;;6.40;;
5175;SDS011;2607;50.934;6.934;2023-03-01T06:16:52;8.20;;;7.40;;
5175;SDS011;2607;50.934;6.934;2023-03-01T06:19:18;10.83;;;8.60;;
5175;SDS011;2607;50.934;6.934;2023-03-01T06:21:43;10.30;;;7.17;;
5175;SDS011;2607;50.934;6.934;2023-03-01T06:24:09;10.00;;;7.33;;
5175;SDS011;2607;50.934;6.934;2023-03-01T06:26:34;8.70;;;7.77;;
5175;SDS011;2607;50.934;6.934;2023-03-01T06:29:00;9.33;;;7.23;;
5175;SDS011;2607;50.934;6.934;2023-03-01T06:31:25;9.50;;;7.53;;
5175;SDS011;2607;50.934;6.934;2023-03-01T06:33:51;11.30;;;7.40;;
5175;SDS011;2607;50.934;6.934;2023-03-01T06:36:16;10.67;;;7.63;;
5175;SDS011;2607;50.934;6.934;2023-03-01T06:38:43;9.50;;;7.37;;
5175;SDS011;2607;50.934;6.934;2023-03-01T06:41:09;8.80;;;7.40;;
5175;SDS011;2607;50.934;6.934;2023-03-01T06:43:35;8.50;;;7.23;;
5175;SDS011;2607;50.934;6.934;2023-03-01T06:46:03;9.10;;;7.80;;
5175;SDS011;2607;50.934;6.934;2023-03-01T06:48:30;11.33;;;8.60;;
5175;SDS011;2607;50.934;6.934;2023-03-01T06:50:57;9.87;;;8.53;;
5175;SDS011;2607;50.934;6.934;2023-03-01T06:53:24;8.97;;;8.07;;
5175;SDS011;2607;50.934;6.934;2023-03-01T06:55:59;13.00;;;8.07;;
5175;SDS011;2607;50.934;6.934;2023-03-01T06:58:27;13.53;;;8.00;;
5175;SDS011;2607;50.934;6.934;2023-03-01T07:00:53;10.20;;;7.77;;
5175;SDS011;2607;50.934;6.934;2023-03-01T07:03:18;14.57;;;8.63;;
5175;SDS011;2607;50.934;6.934;2023-03-01T07:05:44;15.40;;;8.87;;
5175;SDS011;2607;50.934;6.934;2023-03-01T07:08:10;11.20;;;9.40;;
5175;SDS011;2607;50.934;6.934;2023-03-01T07:10:35;10.60;;;8.90;;
5175;SDS011;2607;50.934;6.934;2023-03-01T07:13:01;10.40;;;8.57;;
5175;SDS011;2607;50.934;6.934;2023-03-01T07:15:27;10.93;;;8.90;;
5175;SDS011;2607;50.934;6.934;2023-03-01T07:17:53;15.90;;;9.77;;
5175;SDS011;2607;50.934;6.934;2023-03-01T07:20:19;17.13;;;9.40;;
5175;SDS011;2607;50.934;6.934;2023-03-01T07:22:49;10.53;;;8.70;;
5175;SDS011;2607;50.934;6.934;2023-03-01T07:25:15;17.60;;;8.50;;
5175;SDS011;2607;50.934;6.934;2023-03-01T07:27:40;12.20;;;9.00;;
5175;SDS011;2607;50.934;6.934;2023-03-01T07:30:06;16.30;;;9.70;;
5175;SDS011;2607;50.934;6.934;2023-03-01T07:32:32;14.40;;;8.67;;
5175;SDS011;2607;50.934;6.934;2023-03-01T07:34:58;10.50;;;7.93;;
5175;SDS011;2607;50.934;6.934;2023-03-01T07:37:24;14.97;;;8.87;;
5175;SDS011;2607;50.934;6.934;2023-03-01T07:39:49;10.53;;;8.23;;
5175;SDS011;2607;50.934;6.934;2023-03-01T07:42:15;8.70;;;7.80;;
5175;SDS011;2607;50.934;6.934;2023-03-01T07:44:40;9.47;;;7.53;;
5175;SDS011;2607;50.934;6.934;2023-03-01T07:47:06;11.10;;;8.37;;
5175;SDS011;2607;50.934;6.934;2023-03-01T07:49:31;8.80;;;7.90;;
5175;SDS011;2607;50.934;6.934;2023-03-01T07:51:57;9.67;;;7.63;;
5175;SDS011;2607;50.934;6.934;2023-03-01T07:54:23;15.83;;;9.80;;
5175;SDS011;2607;50.934;6.934;2023-03-01T07:56:50;19.43;;;8.07;;
5175;SDS011;2607;50.934;6.934;2023-03-01T07:59:15;9.80;;;8.40;;
5175;SDS011;2607;50.934;6.934;2023-03-01T08:01:41;11.17;;;8.10;;
5175;SDS011;2607;50.934;6.934;2023-03-01T08:04:07;11.00;;;8.70;;
5175;SDS011;2607;50.934;6.934;2023-03-01T08:06:33;10.97;;;8.03;;
5175;SDS011;2607;50.934;6.934;2023-03-01T08:09:00;12.53;;;8.60;;
5175;SDS011;2607;50.934;6.934;2023-03-01T08:11:26;10.57;;;9.20;;
5175;SDS011;2607;50.934;6.934;2023-03-01T08:13:53;9.87;;;8.30;;
5175;SDS011;2607;50.934;6.934;2023-03-01T08:16:19;9.20;;;8.07;;
5175;SDS011;2607;50.934;6.934;2023-03-01T08:18:45;10.33;;;8.80;;
5175;SDS011;2607;50.934;6.934;2023-03-01T08:21:12;10.80;;;8.40;;
5175;SDS011;2607;50.934;6.934;2023-03-01T08:23:39;11.40;;;9.30;;
5175;SDS011;2607;50.934;6.934;2023-03-01T08:28:42;10.13;;;8.93;;
5175;SDS011;2607;50.934;6.934;2023-03-01T08:33:47;10.83;;;8.63;;
5175;SDS011;2607;50.934;6.934;2023-03-01T08:36:19;11.20;;;9.20;;
5175;SDS011;2607;50.934;6.934;2023-03-01T08:38:50;15.43;;;8.23;;
5175;SDS011;2607;50.934;6.934;2023-03-01T08:41:16;10.03;;;8.23;;
5175;SDS011;2607;50.934;6.934;2023-03-01T08:43:41;9.93;;;8.37;;
5175;SDS011;2607;50.934;6.934;2023-03-01T08:46:07;11.27;;;9.30;;
5175;SDS011;2607;50.934;6.934;2023-03-01T08:48:33;11.37;;;9.23;;
5175;SDS011;2607;50.934;6.934;2023-03-01T08:53:54;13.97;;;9.43;;
5175;SDS011;2607;50.934;6.934;2023-03-01T08:56:19;12.50;;;9.20;;
5175;SDS011;2607;50.934;6.934;2023-03-01T08:58:45;15.33;;;9.53;;
5175;SDS011;2607;50.934;6.934;2023-03-01T09:01:14;16.97;;;9.80;;
5175;SDS011;2607;50.934;6.934;2023-03-01T09:03:41;9.50;;;7.90;;
5175;SDS011;2607;50.934;6.934;2023-03-01T09:06:07;11.10;;;8.30;;
5175;SDS011;2607;50.934;6.934;2023-03-01T09:08:34;11.63;;;9.37;;
5175;SDS011;2607;50.934;6.934;2023-03-01T09:11:08;9.13;;;7.93;;
5175;SDS011;2607;50.934;6.934;2023-03-01T09:13:35;10.47;;;9.30;;
5175;SDS011;2607;50.934;6.934;2023-03-01T09:16:02;11.63;;;9.00;;
5175;SDS011;2607;50.934;6.934;2023-03-01T09:18:29;9.60;;;7.03;;
5175;SDS011;2607;50.934;6.934;2023-03-01T09:21:03;9.57;;;8.07;;
5175;SDS011;2607;50.934;6.934;2023-03-01T09:23:33;8.93;;;7.60;;
5175;SDS011;2607;50.934;6.934;2023-03-01T09:26:09;9.33;;;7.23;;
5175;SDS011;2607;50.934;6.934;2023-03-01T09:28:37;12.93;;;8.30;;
5175;SDS011;2607;50.934;6.934;2023-03-01T09:31:03;9.80;;;7.87;;
5175;SDS011;2607;50.934;6.934;2023-03-01T09:33:29;11.27;;;8.80;;
5175;SDS011;2607;50.934;6.934;2023-03-01T09:36:00;9.40;;;7.80;;
5175;SDS011;2607;50.934;6.934;2023-03-01T09:38:27;10.57;;;8.27;;
5175;SDS011;2607;50.934;6.934;2023-03-01T09:40:53;11.23;;;7.73;;
5175;SDS011;2607;50.934;6.934;2023-03-01T09:46:12;13.10;;;8.67;;
5175;SDS011;2607;50.934;6.934;2023-03-01T09:48:42;8.97;;;8.03;;
5175;SDS011;2607;50.934;6.934;2023-03-01T09:51:17;8.70;;;7.80;;
5175;SDS011;2607;50.934;6.934;2023-03-01T09:53:46;8.33;;;7.57;;
5175;SDS011;2607;50.934;6.934;2023-03-01T09:56:19;12.03;;;8.20;;
5175;SDS011;2607;50.934;6.934;2023-03-01T09:58:51;8.23;;;7.30;;
5175;SDS011;2607;50.934;6.934;2023-03-01T10:01:32;11.23;;;8.20;;
5175;SDS011;2607;50.934;6.934;2023-03-01T10:09:33;11.23;;;7.93;;
5175;SDS011;2607;50.934;6.934;2023-03-01T10:11:59;8.83;;;7.20;;
5175;SDS011;2607;50.934;6.934;2023-03-01T10:19:38;9.40;;;8.10;;
5175;SDS011;2607;50.934;6.934;2023-03-01T10:22:16;8.70;;;7.60;;
5175;SDS011;2607;50.934;6.934;2023-03-01T10:24:46;9.03;;;7.57;;
5175;SDS011;2607;50.934;6.934;2023-03-01T10:29:53;8.30;;;7.40;;
5175;SDS011;2607;50.934;6.934;2023-03-01T10:32:28;8.90;;;7.83;;
5175;SDS011;2607;50.934;6.934;2023-03-01T10:34:54;15.90;;;9.33;;
5175;SDS011;2607;50.934;6.934;2023-03-01T10:37:20;11.60;;;9.77;;
5175;SDS011;2607;50.934;6.934;2023-03-01T10:39:54;14.53;;;10.73;;
5175;SDS011;2607;50.934;6.934;2023-03-01T10:42:23;12.70;;;9.37;;
5175;SDS011;2607;50.934;6.934;2023-03-01T10:44:52;9.80;;;7.67;;
5175;SDS011;2607;50.934;6.934;2023-03-01T10:52:32;8.57;;;7.47;;
5175;SDS011;2607;50.934;6.934;2023-03-01T10:55:01;8.77;;;7.87;;
5175;SDS011;2607;50.934;6.934;2023-03-01T11:00:45;8.73;;;7.97;;
5175;SDS011;2607;50.934;6.934;2023-03-01T11:03:12;11.47;;;8.57;;
5175;SDS011;2607;50.934;6.934;2023-03-01T11:05:50;8.17;;;7.37;;
5175;SDS011;2607;50.934;6.934;2023-03-01T11:08:31;8.60;;;7.63;;
5175;SDS011;2607;50.934;6.934;2023-03-01T11:16:17;9.50;;;7.20;;
5175;SDS011;2607;50.934;6.934;2023-03-01T11:19:07;11.67;;;8.60;;
5175;SDS011;2607;50.934;6.934;2023-03-01T11:24:13;11.37;;;9.10;;
5175;SDS011;2607;50.934;6.934;2023-03-01T11:26:41;12.13;;;7.70;;
5175;SDS011;2607;50.934;6.934;2023-03-01T11:29:35;8.70;;;7.77;;
5175;SDS011;2607;50.934;6.934;2023-03-01T11:32:02;8.93;;;7.40;;
5175;SDS011;2607;50.934;6.934;2023-03-01T11:37:03;10.00;;;8.50;;
5175;SDS011;2607;50.934;6.934;2023-03-01T11:39:40;10.00;;;7.60;;
5175;SDS011;2607;50.934;6.934;2023-03-01T11:42:15;8.17;;;7.37;;
5175;SDS011;2607;50.934;6.934;2023-03-01T11:44:44;10.13;;;8.50;;
5175;SDS011;2607;50.934;6.934;2023-03-01T11:47:37;9.60;;;8.27;;
5175;SDS011;2607;50.934;6.934;2023-03-01T12:06:30;10.63;;;8.13;;
5175;SDS011;2607;50.934;6.934;2023-03-01T12:11:45;7.97;;;7.17;;
5175;SDS011;2607;50.934;6.934;2023-03-01T12:17:04;8.53;;;7.40;;
5175;SDS011;2607;50.934;6.934;2023-03-01T12:19:48;8.43;;;7.53;;
5175;SDS011;2607;50.934;6.934;2023-03-01T12:33:55;10.20;;;8.00;;
5175;SDS011;2607;50.934;6.934;2023-03-01T12:39:05;8.73;;;7.93;;
5175;SDS011;2607;50.934;6.934;2023-03-01T12:41:59;8.30;;;7.50;;
5175;SDS011;2607;50.934;6.934;2023-03-01T12:47:46;9.90;;;8.10;;
5175;SDS011;2607;50.934;6.934;2023-03-01T12:53:15;8.03;;;7.17;;
5175;SDS011;2607;50.934;6.934;2023-03-01T12:55:52;9.37;;;7.37;;
5175;SDS011;2607;50.934;6.934;2023-03-01T12:58:26;10.00;;;7.40;;
5175;SDS011;2607;50.934;6.934;2023-03-01T13:15:24;8.60;;;7.70;;
5175;SDS011;2607;50.934;6.934;2023-03-01T13:17:52;10.80;;;8.30;;
5175;SDS011;2607;50.934;6.934;2023-03-01T13:20:29;9.27;;;7.47;;
5175;SDS011;2607;50.934;6.934;2023-03-01T13:23:02;7.90;;;7.20;;
5175;SDS011;2607;50.934;6.934;2023-03-01T13:25:34;10.00;;;7.67;;
5175;SDS011;2607;50.934;6.934;2023-03-01T13:31:01;8.13;;;7.33;;
5175;SDS011;2607;50.934;6.934;2023-03-01T13:35:54;9.57;;;7.97;;
5175;SDS011;2607;50.934;6.934;2023-03-01T13:41:05;7.80;;;6.60;;
5175;SDS011;2607;50.934;6.934;2023-03-01T13:43:37;10.87;;;7.37;;
5175;SDS011;2607;50.934;6.934;2023-03-01T13:46:26;14.30;;;7.53;;
5175;SDS011;2607;50.934;6.934;2023-03-01T13:48:54;12.83;;;7.50;;
5175;SDS011;2607;50.934;6.934;2023-03-01T13:51:25;7.90;;;7.10;;
5175;SDS011;2607;50.934;6.934;2023-03-01T13:53:53;8.20;;;7.40;;
5175;SDS011;2607;50.934;6.934;2023-03-01T13:56:33;9.33;;;6.90;;
5175;SDS011;2607;50.934;6.934;2023-03-01T13:59:03;8.60;;;7.80;;
5175;SDS011;2607;50.934;6.934;2023-03-01T14:01:33;9.80;;;7.30;;
5175;SDS011;2607;50.934;6.934;2023-03-01T14:04:00;7.77;;;6.97;;
5175;SDS011;2607;50.934;6.934;2023-03-01T14:06:28;9.87;;;7.47;;
5175;SDS011;2607;50.934;6.934;2023-03-01T14:09:14;9.00;;;6.97;;
5175;SDS011;2607;50.934;6.934;2023-03-01T14:14:52;7.80;;;7.10;;
5175;SDS011;2607;50.934;6.934;2023-03-01T14:17:27;6.67;;;6.07;;
5175;SDS011;2607;50.934;6.934;2023-03-01T14:20:18;6.97;;;6.27;;
5175;SDS011;2607;50.934;6.934;2023-03-01T14:22:46;7.10;;;6.40;;
5175;SDS011;2607;50.934;6.934;2023-03-01T14:25:28;12.73;;;6.93;;
5175;SDS011;2607;50.934;6.934;2023-03-01T14:30:42;9.30;;;5.90;;
5175;SDS011;2607;50.934;6.934;2023-03-01T14:33:19;7.63;;;6.67;;
5175;SDS011;2607;50.934;6.934;2023-03-01T14:36:32;18.83;;;14.30;;
5175;SDS011;2607;50.934;6.934;2023-03-01T14:38:39;11.40;;;7.40;;
5175;SDS011;2607;50.934;6.934;2023-03-01T14:41:14;8.83;;;6.70;;
5175;SDS011;2607;50.934;6.934;2023-03-01T14:43:46;11.57;;;7.27;;
5175;SDS011;2607;50.934;6.934;2023-03-01T14:46:23;14.03;;;8.13;;
5175;SDS011;2607;50.934;6.934;2023-03-01T14:48:56;8.00;;;6.93;;
5175;SDS011;2607;50.934;6.934;2023-03-01T14:51:28;9.30;;;7.27;;
5175;SDS011;2607;50.934;6.934;2023-03-01T14:53:53;9.33;;;6.97;;
5175;SDS011;2607;50.934;6.934;2023-03-01T14:56:20;9.83;;;6.77;;
5175;SDS011;2607;50.934;6.934;2023-03-01T14:58:45;13.70;;;6.50;;
5175;SDS011;2607;50.934;6.934;2023-03-01T15:01:16;7.53;;;6.73;;
5175;SDS011;2607;50.934;6.934;2023-03-01T15:03:46;7.30;;;6.60;;
5175;SDS011;2607;50.934;6.934;2023-03-01T15:06:20;8.57;;;6.20;;
5175;SDS011;2607;50.934;6.934;2023-03-01T15:08:48;7.20;;;6.50;;
5175;SDS011;2607;50.934;6.934;2023-03-01T15:11:17;7.80;;;7.03;;
5175;SDS011;2607;50.934;6.934;2023-03-01T15:13:49;9.13;;;7.20;;
5175;SDS011;2607;50.934;6.934;2023-03-01T15:16:19;8.70;;;6.60;;
5175;SDS011;2607;50.934;6.934;2023-03-01T15:18:51;6.60;;;6.00;;
5175;SDS011;2607;50.934;6.934;2023-03-01T15:21:24;7.80;;;6.27;;
5175;SDS011;2607;50.934;6.934;2023-03-01T15:24:34;9.20;;;7.70;;
5175;SDS011;2607;50.934;6.934;2023-03-01T15:29:21;8.87;;;7.93;;
5175;SDS011;2607;50.934;6.934;2023-03-01T15:31:58;21.37;;;11.50;;
5175;SDS011;2607;50.934;6.934;2023-03-01T15:34:29;11.67;;;9.10;;
5175;SDS011;2607;50.934;6.934;2023-03-01T15:36:58;14.40;;;8.50;;
5175;SDS011;2607;50.934;6.934;2023-03-01T15:39:32;14.07;;;9.20;;
5175;SDS011;2607;50.934;6.934;2023-03-01T15:47:52;35.37;;;21.93;;
5175;SDS011;2607;50.934;6.934;2023-03-01T15:50:26;26.27;;;13.50;;
5175;SDS011;2607;50.934;6.934;2023-03-01T15:52:54;8.50;;;7.37;;
5175;SDS011;2607;50.934;6.934;2023-03-01T15:55:24;10.03;;;8.00;;
5175;SDS011;2607;50.934;6.934;2023-03-01T16:00:50;12.20;;;8.00;;
5175;SDS011;2607;50.934;6.934;2023-03-01T16:03:21;9.93;;;6.93;;
5175;SDS011;2607;50.934;6.934;2023-03-01T16:05:48;9.20;;;7.40;;
5175;SDS011;2607;50.934;6.934;2023-03-01T16:08:15;9.00;;;7.43;;
5175;SDS011;2607;50.934;6.934;2023-03-01T16:10:41;10.93;;;7.47;;
5175;SDS011;2607;50.934;6.934;2023-03-01T16:13:10;8.40;;;7.23;;
5175;SDS011;2607;50.934;6.934;2023-03-01T16:15:42;10.37;;;7.47;;
5175;SDS011;2607;50.934;6.934;2023-03-01T16:18:11;7.83;;;6.80;;
5175;SDS011;2607;50.934;6.934;2023-03-01T16:20:36;7.03;;;6.33;;
5175;SDS011;2607;50.934;6.934;2023-03-01T16:23:03;10.47;;;8.00;;
5175;SDS011;2607;50.934;6.934;2023-03-01T16:25:31;9.50;;;6.83;;
5175;SDS011;2607;50.934;6.934;2023-03-01T16:27:57;8.63;;;7.70;;
5175;SDS011;2607;50.934;6.934;2023-03-01T16:30:26;6.77;;;6.17;;
5175;SDS011;2607;50.934;6.934;2023-03-01T16:32:52;7.97;;;7.17;;
5175;SDS011;2607;50.934;6.934;2023-03-01T16:35:19;9.50;;;6.60;;
5175;SDS011;2607;50.934;6.934;2023-03-01T16:37:46;11.97;;;7.10;;
5175;SDS011;2607;50.934;6.934;2023-03-01T16:40:19;13.03;;;8.90;;
5175;SDS011;2607;50.934;6.934;2023-03-01T16:42:48;10.30;;;8.47;;
5175;SDS011;2607;50.934;6.934;2023-03-01T16:45:15;9.53;;;7.57;;
5175;SDS011;2607;50.934;6.934;2023-03-01T16:47:40;7.47;;;6.20;;
5175;SDS011;2607;50.934;6.934;2023-03-01T16:50:06;13.13;;;6.50;;
5175;SDS011;2607;50.934;6.934;2023-03-01T16:52:33;11.70;;;7.50;;
5175;SDS011;2607;50.934;6.934;2023-03-01T16:54:59;7.93;;;6.67;;
5175;SDS011;2607;50.934;6.934;2023-03-01T16:57:25;9.20;;;7.30;;
5175;SDS011;2607;50.934;6.934;2023-03-01T16:59:51;8.00;;;7.00;;
5175;SDS011;2607;50.934;6.934;2023-03-01T17:02:18;9.00;;;7.00;;
5175;SDS011;2607;50.934;6.934;2023-03-01T17:04:45;8.20;;;6.43;;
5175;SDS011;2607;50.934;6.934;2023-03-01T17:07:16;8.90;;;7.90;;
5175;SDS011;2607;50.934;6.934;2023-03-01T17:09:42;7.40;;;6.53;;
5175;SDS011;2607;50.934;6.934;2023-03-01T17:12:08;9.20;;;7.13;;
5175;SDS011;2607;50.934;6.934;2023-03-01T17:14:34;11.40;;;6.83;;
5175;SDS011;2607;50.934;6.934;2023-03-01T17:16:59;14.10;;;6.80;;
5175;SDS011;2607;50.934;6.934;2023-03-01T17:19:26;17.13;;;9.47;;
5175;SDS011;2607;50.934;6.934;2023-03-01T17:21:52;9.00;;;6.63;;
5175;SDS011;2607;50.934;6.934;2023-03-01T17:24:18;11.37;;;7.53;;
5175;SDS011;2607;50.934;6.934;2023-03-01T17:26:43;8.90;;;7.53;;
5175;SDS011;2607;50.934;6.934;2023-03-01T17:29:09;12.73;;;9.10;;
5175;SDS011;2607;50.934;6.934;2023-03-01T17:31:35;13.20;;;9.23;;
5175;SDS011;2607;50.934;6.934;2023-03-01T17:34:01;11.53;;;6.50;;
5175;SDS011;2607;50.934;6.934;2023-03-01T17:36:26;7.93;;;6.37;;
5175;SDS011;2607;50.934;6.934;2023-03-01T17:38:52;14.23;;;7.53;;